sensor_id;sensor_type;location;lat;lon;timestamp;P1;durP1;ratioP1;P2;durP2;ratioP2
37777;SDS011;23615;51.506;7.678;2023-08-01T00:00:08;0.50;;;0.10;;
37777;SDS011;23615;51.506;7.678;2023-08-01T00:02:34;0.32;;;0.10;;
37777;SDS011;23615;51.506;7.678;2023-08-01T00:04:59;0.30;;;0.10;;
37777;SDS011;23615;51.506;7.678;2023-08-01T00:07:26;0.53;;;0.10;;
37777;SDS011;23615;51.506;7.678;2023-08-01T00:09:52;0.22;;;0.10;;
37777;SDS011;23615;51.506;7.678;2023-08-01T00:12:17;0.47;;;0.10;;
37777;SDS011;23615;51.506;7.678;2023-08-01T00:14:43;0.17;;;0.10;;
37777;SDS011;23615;51.506;7.678;2023-08-01T00:17:08;0.07;;;0.00;;
37777;SDS011;23615;51.506;7.678;2023-08-01T00:19:33;0.50;;;0.00;;
37777;SDS011;23615;51.506;7.678;2023-08-01T00:21:59;0.33;;;0.00;;
37777;SDS011;23615;51.506;7.678;2023-08-01T00:24:24;0.40;;;0.10;;
37777;SDS011;23615;51.506;7.678;2023-08-01T00:26:50;0.00;;;0.00;;
37777;SDS011;23615;51.506;7.678;2023-08-01T00:29:15;0.95;;;0.10;;
37777;SDS011;23615;51.506;7.678;2023-08-01T00:31:40;0.60;;;0.10;;
37777;SDS011;23615;51.506;7.678;2023-08-01T00:34:06;0.70;;;0.20;;
37777;SDS011;23615;51.506;7.678;2023-08-01T00:36:31;0.88;;;0.30;;
37777;SDS011;23615;51.506;7.678;2023-08-01T00:38:57;1.57;;;0.37;;
37777;SDS011;23615;51.506;7.678;2023-08-01T00:41:22;0.10;;;0.10;;
37777;SDS011;23615;51.506;7.678;2023-08-01T00:43:48;0.03;;;0.03;;
37777;SDS011;23615;51.506;7.678;2023-08-01T00:46:13;0.70;;;0.10;;
37777;SDS011;23615;51.506;7.678;2023-08-01T00:48:39;0.07;;;0.00;;
37777;SDS011;23615;51.506;7.678;2023-08-01T00:51:04;0.00;;;0.00;;
37777;SDS011;23615;51.506;7.678;2023-08-01T00:53:31;0.10;;;0.00;;
37777;SDS011;23615;51.506;7.678;2023-08-01T00:56:00;0.00;;;0.00;;
37777;SDS011;23615;51.506;7.678;2023-08-01T00:58:25;0.60;;;0.00;;
37777;SDS011;23615;51.506;7.678;2023-08-01T01:00:51;0.40;;;0.00;;
37777;SDS011;23615;51.506;7.678;2023-08-01T01:03:16;0.00;;;0.00;;
37777;SDS011;23615;51.506;7.678;2023-08-01T01:05:44;0.10;;;0.00;;
37777;SDS011;23615;51.506;7.678;2023-08-01T01:08:16;0.70;;;0.00;;
37777;SDS011;23615;51.506;7.678;2023-08-01T01:10:41;0.10;;;0.00;;
37777;SDS011;23615;51.506;7.678;2023-08-01T01:13:07;0.23;;;0.00;;
37777;SDS011;23615;51.506;7.678;2023-08-01T01:15:32;0.00;;;0.00;;
37777;SDS011;23615;51.506;7.678;2023-08-01T01:17:57;0.30;;;0.10;;
37777;SDS011;23615;51.506;7.678;2023-08-01T01:20:23;0.10;;;0.10;;
37777;SDS011;23615;51.506;7.678;2023-08-01T01:22:52;0.10;;;0.08;;
37777;SDS011;23615;51.506;7.678;2023-08-01T01:25:19;0.80;;;0.00;;
37777;SDS011;23615;51.506;7.678;2023-08-01T01:27:47;0.20;;;0.05;;
37777;SDS011;23615;51.506;7.678;2023-08-01T01:30:14;0.00;;;0.00;;
37777;SDS011;23615;51.506;7.678;2023-08-01T01:32:40;0.50;;;0.10;;
37777;SDS011;23615;51.506;7.678;2023-08-01T01:35:05;0.00;;;0.00;;
37777;SDS011;23615;51.506;7.678;2023-08-01T01:37:31;0.22;;;0.20;;
37777;SDS011;23615;51.506;7.678;2023-08-01T01:39:57;1.37;;;0.73;;
37777;SDS011;23615;51.506;7.678;2023-08-01T01:42:22;1.40;;;1.30;;
37777;SDS011;23615;51.506;7.678;2023-08-01T01:44:47;1.13;;;1.13;;
37777;SDS011;23615;51.506;7.678;2023-08-01T01:47:13;1.00;;;0.40;;
37777;SDS011;23615;51.506;7.678;2023-08-01T01:49:38;0.13;;;0.13;;
37777;SDS011;23615;51.506;7.678;2023-08-01T01:52:03;0.10;;;0.10;;
37777;SDS011;23615;51.506;7.678;2023-08-01T01:54:29;0.45;;;0.10;;
37777;SDS011;23615;51.506;7.678;2023-08-01T01:56:54;0.17;;;0.10;;
37777;SDS011;23615;51.506;7.678;2023-08-01T01:59:20;0.10;;;0.10;;
37777;SDS011;23615;51.506;7.678;2023-08-01T02:01:45;0.40;;;0.10;;
37777;SDS011;23615;51.506;7.678;2023-08-01T02:04:10;0.40;;;0.10;;
37777;SDS011;23615;51.506;7.678;2023-08-01T02:06:36;0.20;;;0.20;;
37777;SDS011;23615;51.506;7.678;2023-08-01T02:09:01;0.73;;;0.20;;
37777;SDS011;23615;51.506;7.678;2023-08-01T02:11:26;0.52;;;0.20;;
37777;SDS011;23615;51.506;7.678;2023-08-01T02:13:52;0.80;;;0.20;;
37777;SDS011;23615;51.506;7.678;2023-08-01T02:16:17;0.40;;;0.20;;
37777;SDS011;23615;51.506;7.678;2023-08-01T02:18:43;0.77;;;0.10;;
37777;SDS011;23615;51.506;7.678;2023-08-01T02:21:08;0.67;;;0.20;;
37777;SDS011;23615;51.506;7.678;2023-08-01T02:23:33;0.20;;;0.20;;
37777;SDS011;23615;51.506;7.678;2023-08-01T02:26:01;0.40;;;0.10;;
37777;SDS011;23615;51.506;7.678;2023-08-01T02:28:26;0.40;;;0.30;;
37777;SDS011;23615;51.506;7.678;2023-08-01T02:30:52;0.60;;;0.23;;
37777;SDS011;23615;51.506;7.678;2023-08-01T02:33:17;0.40;;;0.13;;
37777;SDS011;23615;51.506;7.678;2023-08-01T02:35:42;0.40;;;0.20;;
37777;SDS011;23615;51.506;7.678;2023-08-01T02:38:08;0.90;;;0.20;;
37777;SDS011;23615;51.506;7.678;2023-08-01T02:40:33;0.30;;;0.30;;
37777;SDS011;23615;51.506;7.678;2023-08-01T02:42:58;0.30;;;0.20;;
37777;SDS011;23615;51.506;7.678;2023-08-01T02:45:23;0.80;;;0.20;;
37777;SDS011;23615;51.506;7.678;2023-08-01T02:47:49;0.70;;;0.20;;
37777;SDS011;23615;51.506;7.678;2023-08-01T02:50:14;0.88;;;0.30;;
37777;SDS011;23615;51.506;7.678;2023-08-01T02:52:39;0.30;;;0.23;;
37777;SDS011;23615;51.506;7.678;2023-08-01T02:55:05;0.80;;;0.30;;
37777;SDS011;23615;51.506;7.678;2023-08-01T02:57:30;1.05;;;0.30;;
37777;SDS011;23615;51.506;7.678;2023-08-01T02:59:56;0.30;;;0.20;;
37777;SDS011;23615;51.506;7.678;2023-08-01T03:02:21;1.30;;;0.43;;
37777;SDS011;23615;51.506;7.678;2023-08-01T03:04:46;0.80;;;0.30;;
37777;SDS011;23615;51.506;7.678;2023-08-01T03:07:12;1.53;;;0.40;;
37777;SDS011;23615;51.506;7.678;2023-08-01T03:09:37;1.20;;;0.30;;
37777;SDS011;23615;51.506;7.678;2023-08-01T03:12:03;1.75;;;0.70;;
37777;SDS011;23615;51.506;7.678;2023-08-01T03:14:28;1.85;;;0.40;;
37777;SDS011;23615;51.506;7.678;2023-08-01T03:16:53;1.57;;;0.60;;
37777;SDS011;23615;51.506;7.678;2023-08-01T03:19:19;2.37;;;0.60;;
37777;SDS011;23615;51.506;7.678;2023-08-01T03:21:44;2.40;;;0.90;;
37777;SDS011;23615;51.506;7.678;2023-08-01T03:24:09;1.73;;;0.83;;
37777;SDS011;23615;51.506;7.678;2023-08-01T03:26:35;1.80;;;1.27;;
37777;SDS011;23615;51.506;7.678;2023-08-01T03:29:01;3.28;;;1.30;;
37777;SDS011;23615;51.506;7.678;2023-08-01T03:31:27;3.30;;;1.58;;
37777;SDS011;23615;51.506;7.678;2023-08-01T03:33:52;2.08;;;1.60;;
37777;SDS011;23615;51.506;7.678;2023-08-01T03:36:17;2.50;;;2.10;;
37777;SDS011;23615;51.506;7.678;2023-08-01T03:38:43;2.60;;;2.23;;
37777;SDS011;23615;51.506;7.678;2023-08-01T03:41:08;3.73;;;2.57;;
37777;SDS011;23615;51.506;7.678;2023-08-01T03:43:34;4.13;;;3.15;;
37777;SDS011;23615;51.506;7.678;2023-08-01T03:45:59;4.50;;;3.93;;
37777;SDS011;23615;51.506;7.678;2023-08-01T03:48:24;4.77;;;4.00;;
37777;SDS011;23615;51.506;7.678;2023-08-01T03:50:49;6.83;;;4.67;;
37777;SDS011;23615;51.506;7.678;2023-08-01T03:53:15;8.05;;;5.43;;
37777;SDS011;23615;51.506;7.678;2023-08-01T03:55:40;10.43;;;6.33;;
37777;SDS011;23615;51.506;7.678;2023-08-01T03:58:07;6.60;;;6.00;;
37777;SDS011;23615;51.506;7.678;2023-08-01T04:00:32;7.63;;;6.83;;
37777;SDS011;23615;51.506;7.678;2023-08-01T04:02:58;8.77;;;7.70;;
37777;SDS011;23615;51.506;7.678;2023-08-01T04:05:25;10.67;;;7.80;;
37777;SDS011;23615;51.506;7.678;2023-08-01T04:07:50;9.67;;;8.67;;
37777;SDS011;23615;51.506;7.678;2023-08-01T04:10:15;10.50;;;8.60;;
37777;SDS011;23615;51.506;7.678;2023-08-01T04:12:41;10.77;;;8.60;;
37777;SDS011;23615;51.506;7.678;2023-08-01T04:15:07;12.00;;;9.45;;
37777;SDS011;23615;51.506;7.678;2023-08-01T04:17:33;10.85;;;9.52;;
37777;SDS011;23615;51.506;7.678;2023-08-01T04:19:58;10.77;;;9.47;;
37777;SDS011;23615;51.506;7.678;2023-08-01T04:22:24;11.57;;;10.37;;
37777;SDS011;23615;51.506;7.678;2023-08-01T04:24:49;11.00;;;9.90;;
37777;SDS011;23615;51.506;7.678;2023-08-01T04:27:15;12.80;;;9.57;;
37777;SDS011;23615;51.506;7.678;2023-08-01T04:29:40;12.50;;;10.23;;
37777;SDS011;23615;51.506;7.678;2023-08-01T04:32:06;11.37;;;9.60;;
37777;SDS011;23615;51.506;7.678;2023-08-01T04:34:31;10.73;;;9.50;;
37777;SDS011;23615;51.506;7.678;2023-08-01T04:36:57;13.23;;;10.30;;
37777;SDS011;23615;51.506;7.678;2023-08-01T04:39:22;12.53;;;10.93;;
37777;SDS011;23615;51.506;7.678;2023-08-01T04:41:47;13.50;;;10.60;;
37777;SDS011;23615;51.506;7.678;2023-08-01T04:44:14;12.80;;;10.50;;
37777;SDS011;23615;51.506;7.678;2023-08-01T04:46:40;11.80;;;10.40;;
37777;SDS011;23615;51.506;7.678;2023-08-01T04:49:05;13.90;;;10.37;;
37777;SDS011;23615;51.506;7.678;2023-08-01T04:51:30;11.57;;;10.10;;
37777;SDS011;23615;51.506;7.678;2023-08-01T04:53:55;11.27;;;10.07;;
37777;SDS011;23615;51.506;7.678;2023-08-01T04:56:21;14.70;;;10.27;;
37777;SDS011;23615;51.506;7.678;2023-08-01T04:58:46;13.73;;;11.37;;
37777;SDS011;23615;51.506;7.678;2023-08-01T05:01:11;14.47;;;11.63;;
37777;SDS011;23615;51.506;7.678;2023-08-01T05:03:37;17.63;;;12.23;;
37777;SDS011;23615;51.506;7.678;2023-08-01T05:06:02;15.20;;;12.40;;
37777;SDS011;23615;51.506;7.678;2023-08-01T05:08:28;14.05;;;12.57;;
37777;SDS011;23615;51.506;7.678;2023-08-01T05:10:53;17.13;;;12.13;;
37777;SDS011;23615;51.506;7.678;2023-08-01T05:13:18;17.40;;;11.50;;
37777;SDS011;23615;51.506;7.678;2023-08-01T05:15:44;11.57;;;9.07;;
37777;SDS011;23615;51.506;7.678;2023-08-01T05:18:12;10.27;;;9.05;;
37777;SDS011;23615;51.506;7.678;2023-08-01T05:20:37;11.88;;;8.23;;
37777;SDS011;23615;51.506;7.678;2023-08-01T05:23:03;13.90;;;8.37;;
37777;SDS011;23615;51.506;7.678;2023-08-01T05:25:28;10.33;;;7.33;;
37777;SDS011;23615;51.506;7.678;2023-08-01T05:27:53;9.27;;;6.57;;
37777;SDS011;23615;51.506;7.678;2023-08-01T05:30:19;8.97;;;6.97;;
37777;SDS011;23615;51.506;7.678;2023-08-01T05:32:44;8.60;;;7.00;;
37777;SDS011;23615;51.506;7.678;2023-08-01T05:35:10;10.90;;;6.07;;
37777;SDS011;23615;51.506;7.678;2023-08-01T05:37:36;8.63;;;5.90;;
37777;SDS011;23615;51.506;7.678;2023-08-01T05:40:04;7.63;;;4.93;;
37777;SDS011;23615;51.506;7.678;2023-08-01T05:42:30;6.95;;;4.88;;
37777;SDS011;23615;51.506;7.678;2023-08-01T05:44:55;6.77;;;5.37;;
37777;SDS011;23615;51.506;7.678;2023-08-01T05:47:20;7.53;;;4.93;;
37777;SDS011;23615;51.506;7.678;2023-08-01T05:49:47;7.67;;;4.87;;
37777;SDS011;23615;51.506;7.678;2023-08-01T05:52:13;9.40;;;5.00;;
37777;SDS011;23615;51.506;7.678;2023-08-01T05:54:38;9.20;;;5.47;;
37777;SDS011;23615;51.506;7.678;2023-08-01T05:57:04;8.53;;;4.80;;
37777;SDS011;23615;51.506;7.678;2023-08-01T05:59:30;9.63;;;5.90;;
37777;SDS011;23615;51.506;7.678;2023-08-01T06:01:55;9.50;;;6.07;;
37777;SDS011;23615;51.506;7.678;2023-08-01T06:04:20;9.53;;;6.40;;
37777;SDS011;23615;51.506;7.678;2023-08-01T06:06:46;9.65;;;6.68;;
37777;SDS011;23615;51.506;7.678;2023-08-01T06:09:11;9.80;;;7.33;;
37777;SDS011;23615;51.506;7.678;2023-08-01T06:11:36;10.50;;;7.10;;
37777;SDS011;23615;51.506;7.678;2023-08-01T06:14:02;8.68;;;7.63;;
37777;SDS011;23615;51.506;7.678;2023-08-01T06:16:27;11.13;;;7.20;;
37777;SDS011;23615;51.506;7.678;2023-08-01T06:18:52;12.37;;;8.50;;
37777;SDS011;23615;51.506;7.678;2023-08-01T06:21:18;10.17;;;7.97;;
37777;SDS011;23615;51.506;7.678;2023-08-01T06:23:43;11.53;;;8.17;;
37777;SDS011;23615;51.506;7.678;2023-08-01T06:26:09;11.87;;;8.33;;
37777;SDS011;23615;51.506;7.678;2023-08-01T06:28:34;11.23;;;9.07;;
37777;SDS011;23615;51.506;7.678;2023-08-01T06:30:59;14.43;;;9.93;;
37777;SDS011;23615;51.506;7.678;2023-08-01T06:33:25;12.00;;;9.40;;
37777;SDS011;23615;51.506;7.678;2023-08-01T06:35:50;12.47;;;10.17;;
37777;SDS011;23615;51.506;7.678;2023-08-01T06:38:15;13.80;;;11.00;;
37777;SDS011;23615;51.506;7.678;2023-08-01T06:40:41;11.57;;;10.37;;
37777;SDS011;23615;51.506;7.678;2023-08-01T06:43:06;13.40;;;10.53;;
37777;SDS011;23615;51.506;7.678;2023-08-01T06:45:31;13.55;;;10.23;;
37777;SDS011;23615;51.506;7.678;2023-08-01T06:48:36;12.45;;;10.85;;
37777;SDS011;23615;51.506;7.678;2023-08-01T06:51:01;17.37;;;11.23;;
37777;SDS011;23615;51.506;7.678;2023-08-01T06:53:29;14.10;;;11.60;;
37777;SDS011;23615;51.506;7.678;2023-08-01T06:55:55;16.63;;;11.60;;
37777;SDS011;23615;51.506;7.678;2023-08-01T06:58:20;13.47;;;11.17;;
37777;SDS011;23615;51.506;7.678;2023-08-01T07:00:45;15.67;;;12.03;;
37777;SDS011;23615;51.506;7.678;2023-08-01T07:03:10;15.80;;;11.88;;
37777;SDS011;23615;51.506;7.678;2023-08-01T07:05:36;12.83;;;11.53;;
37777;SDS011;23615;51.506;7.678;2023-08-01T07:08:02;17.17;;;12.18;;
37777;SDS011;23615;51.506;7.678;2023-08-01T07:10:27;13.80;;;12.40;;
37777;SDS011;23615;51.506;7.678;2023-08-01T07:12:53;19.50;;;13.13;;
37777;SDS011;23615;51.506;7.678;2023-08-01T07:15:18;15.23;;;13.13;;
37777;SDS011;23615;51.506;7.678;2023-08-01T07:17:43;15.17;;;12.57;;
37777;SDS011;23615;51.506;7.678;2023-08-01T07:20:09;15.77;;;11.33;;
37777;SDS011;23615;51.506;7.678;2023-08-01T07:22:34;15.13;;;11.73;;
37777;SDS011;23615;51.506;7.678;2023-08-01T07:25:00;15.37;;;10.87;;
37777;SDS011;23615;51.506;7.678;2023-08-01T07:27:25;15.30;;;11.53;;
37777;SDS011;23615;51.506;7.678;2023-08-01T07:29:50;13.17;;;10.77;;
37777;SDS011;23615;51.506;7.678;2023-08-01T07:32:15;15.63;;;10.57;;
37777;SDS011;23615;51.506;7.678;2023-08-01T07:34:41;12.20;;;10.23;;
37777;SDS011;23615;51.506;7.678;2023-08-01T07:37:06;12.97;;;9.77;;
37777;SDS011;23615;51.506;7.678;2023-08-01T07:39:31;12.67;;;10.07;;
37777;SDS011;23615;51.506;7.678;2023-08-01T07:41:59;13.48;;;10.52;;
37777;SDS011;23615;51.506;7.678;2023-08-01T07:44:24;13.83;;;10.00;;
37777;SDS011;23615;51.506;7.678;2023-08-01T07:46:49;12.17;;;10.00;;
37777;SDS011;23615;51.506;7.678;2023-08-01T07:49:15;12.68;;;9.65;;
37777;SDS011;23615;51.506;7.678;2023-08-01T07:51:41;12.93;;;9.80;;
37777;SDS011;23615;51.506;7.678;2023-08-01T07:54:06;13.70;;;10.02;;
37777;SDS011;23615;51.506;7.678;2023-08-01T07:56:31;11.77;;;9.03;;
37777;SDS011;23615;51.506;7.678;2023-08-01T07:58:57;10.43;;;8.83;;
37777;SDS011;23615;51.506;7.678;2023-08-01T08:01:22;13.73;;;9.13;;
37777;SDS011;23615;51.506;7.678;2023-08-01T08:03:48;13.77;;;8.85;;
37777;SDS011;23615;51.506;7.678;2023-08-01T08:06:13;14.02;;;8.45;;
37777;SDS011;23615;51.506;7.678;2023-08-01T08:08:38;11.13;;;9.10;;
37777;SDS011;23615;51.506;7.678;2023-08-01T08:11:04;13.00;;;9.00;;
37777;SDS011;23615;51.506;7.678;2023-08-01T08:13:29;13.07;;;8.70;;
37777;SDS011;23615;51.506;7.678;2023-08-01T08:15:56;9.65;;;8.32;;
37777;SDS011;23615;51.506;7.678;2023-08-01T08:18:22;10.27;;;8.20;;
37777;SDS011;23615;51.506;7.678;2023-08-01T08:20:48;11.48;;;7.88;;
37777;SDS011;23615;51.506;7.678;2023-08-01T08:23:13;12.33;;;8.63;;
37777;SDS011;23615;51.506;7.678;2023-08-01T08:25:39;9.93;;;8.17;;
37777;SDS011;23615;51.506;7.678;2023-08-01T08:28:05;8.60;;;7.10;;
37777;SDS011;23615;51.506;7.678;2023-08-01T08:30:30;8.73;;;7.50;;
37777;SDS011;23615;51.506;7.678;2023-08-01T08:32:57;9.47;;;6.83;;
37777;SDS011;23615;51.506;7.678;2023-08-01T08:35:23;13.32;;;7.78;;
37777;SDS011;23615;51.506;7.678;2023-08-01T08:37:48;8.60;;;6.10;;
37777;SDS011;23615;51.506;7.678;2023-08-01T08:40:13;7.43;;;6.60;;
37777;SDS011;23615;51.506;7.678;2023-08-01T08:42:39;9.77;;;6.00;;
37777;SDS011;23615;51.506;7.678;2023-08-01T08:45:05;7.82;;;6.05;;
37777;SDS011;23615;51.506;7.678;2023-08-01T08:47:31;8.63;;;5.93;;
37777;SDS011;23615;51.506;7.678;2023-08-01T08:50:01;9.73;;;5.80;;
37777;SDS011;23615;51.506;7.678;2023-08-01T08:52:27;7.73;;;5.17;;
37777;SDS011;23615;51.506;7.678;2023-08-01T08:54:52;9.53;;;5.77;;
37777;SDS011;23615;51.506;7.678;2023-08-01T08:57:18;8.07;;;5.38;;
37777;SDS011;23615;51.506;7.678;2023-08-01T08:59:45;8.95;;;6.05;;
37777;SDS011;23615;51.506;7.678;2023-08-01T09:02:12;7.85;;;5.45;;
37777;SDS011;23615;51.506;7.678;2023-08-01T09:04:40;6.05;;;4.75;;
37777;SDS011;23615;51.506;7.678;2023-08-01T09:07:07;6.63;;;5.35;;
37777;SDS011;23615;51.506;7.678;2023-08-01T09:09:35;7.43;;;4.40;;
37777;SDS011;23615;51.506;7.678;2023-08-01T09:12:01;6.73;;;3.60;;
37777;SDS011;23615;51.506;7.678;2023-08-01T09:14:27;6.37;;;3.80;;
37777;SDS011;23615;51.506;7.678;2023-08-01T09:16:52;5.10;;;3.80;;
37777;SDS011;23615;51.506;7.678;2023-08-01T09:19:18;5.07;;;3.90;;
37777;SDS011;23615;51.506;7.678;2023-08-01T09:21:45;7.82;;;4.35;;
37777;SDS011;23615;51.506;7.678;2023-08-01T09:24:12;6.55;;;4.35;;
37777;SDS011;23615;51.506;7.678;2023-08-01T09:26:38;7.50;;;4.72;;
37777;SDS011;23615;51.506;7.678;2023-08-01T09:29:04;6.83;;;5.10;;
37777;SDS011;23615;51.506;7.678;2023-08-01T09:31:30;7.87;;;4.87;;
37777;SDS011;23615;51.506;7.678;2023-08-01T09:34:00;8.25;;;4.63;;
37777;SDS011;23615;51.506;7.678;2023-08-01T09:36:26;6.50;;;4.33;;
37777;SDS011;23615;51.506;7.678;2023-08-01T09:38:51;8.33;;;4.93;;
37777;SDS011;23615;51.506;7.678;2023-08-01T09:41:23;7.30;;;5.20;;
37777;SDS011;23615;51.506;7.678;2023-08-01T09:43:49;5.18;;;4.35;;
37777;SDS011;23615;51.506;7.678;2023-08-01T09:46:15;7.82;;;5.10;;
37777;SDS011;23615;51.506;7.678;2023-08-01T09:48:41;5.67;;;4.57;;
37777;SDS011;23615;51.506;7.678;2023-08-01T09:51:10;7.80;;;4.93;;
37777;SDS011;23615;51.506;7.678;2023-08-01T09:53:53;9.88;;;4.10;;
37777;SDS011;23615;51.506;7.678;2023-08-01T09:56:20;7.40;;;5.05;;
37777;SDS011;23615;51.506;7.678;2023-08-01T09:58:46;5.65;;;3.58;;
37777;SDS011;23615;51.506;7.678;2023-08-01T10:01:16;4.65;;;3.65;;
37777;SDS011;23615;51.506;7.678;2023-08-01T10:03:46;5.28;;;3.88;;
37777;SDS011;23615;51.506;7.678;2023-08-01T10:06:14;5.00;;;3.58;;
37777;SDS011;23615;51.506;7.678;2023-08-01T10:08:44;6.47;;;3.90;;
37777;SDS011;23615;51.506;7.678;2023-08-01T10:11:11;6.93;;;3.47;;
37777;SDS011;23615;51.506;7.678;2023-08-01T10:13:39;4.22;;;3.33;;
37777;SDS011;23615;51.506;7.678;2023-08-01T10:16:06;6.30;;;3.23;;
37777;SDS011;23615;51.506;7.678;2023-08-01T10:18:32;5.00;;;3.33;;
37777;SDS011;23615;51.506;7.678;2023-08-01T10:20:59;4.72;;;3.28;;
37777;SDS011;23615;51.506;7.678;2023-08-01T10:23:26;9.03;;;3.50;;
37777;SDS011;23615;51.506;7.678;2023-08-01T10:25:52;4.40;;;2.90;;
37777;SDS011;23615;51.506;7.678;2023-08-01T10:28:18;3.45;;;2.17;;
37777;SDS011;23615;51.506;7.678;2023-08-01T10:30:43;3.73;;;2.40;;
37777;SDS011;23615;51.506;7.678;2023-08-01T10:33:09;3.22;;;2.67;;
37777;SDS011;23615;51.506;7.678;2023-08-01T10:35:38;3.85;;;2.33;;
37777;SDS011;23615;51.506;7.678;2023-08-01T10:38:05;3.47;;;2.65;;
37777;SDS011;23615;51.506;7.678;2023-08-01T10:40:33;2.65;;;2.30;;
37777;SDS011;23615;51.506;7.678;2023-08-01T10:45:59;3.50;;;2.53;;
37777;SDS011;23615;51.506;7.678;2023-08-01T10:48:28;4.00;;;1.92;;
37777;SDS011;23615;51.506;7.678;2023-08-01T10:50:57;3.27;;;1.60;;
37777;SDS011;23615;51.506;7.678;2023-08-01T10:53:22;2.35;;;2.00;;
37777;SDS011;23615;51.506;7.678;2023-08-01T10:55:48;4.60;;;2.72;;
37777;SDS011;23615;51.506;7.678;2023-08-01T10:58:14;5.57;;;2.38;;
37777;SDS011;23615;51.506;7.678;2023-08-01T11:00:39;4.63;;;2.35;;
37777;SDS011;23615;51.506;7.678;2023-08-01T11:03:06;4.60;;;2.53;;
37777;SDS011;23615;51.506;7.678;2023-08-01T11:05:31;5.80;;;2.70;;
37777;SDS011;23615;51.506;7.678;2023-08-01T11:07:57;4.43;;;2.57;;
37777;SDS011;23615;51.506;7.678;2023-08-01T11:10:28;4.05;;;2.50;;
37777;SDS011;23615;51.506;7.678;2023-08-01T11:12:54;4.47;;;2.42;;
37777;SDS011;23615;51.506;7.678;2023-08-01T11:15:20;5.13;;;2.78;;
37777;SDS011;23615;51.506;7.678;2023-08-01T11:17:47;6.80;;;2.92;;
37777;SDS011;23615;51.506;7.678;2023-08-01T11:20:16;3.40;;;2.67;;
37777;SDS011;23615;51.506;7.678;2023-08-01T11:22:52;3.65;;;2.50;;
37777;SDS011;23615;51.506;7.678;2023-08-01T11:28:09;3.83;;;2.58;;
37777;SDS011;23615;51.506;7.678;2023-08-01T11:30:36;4.77;;;2.73;;
37777;SDS011;23615;51.506;7.678;2023-08-01T11:33:02;4.03;;;2.47;;
37777;SDS011;23615;51.506;7.678;2023-08-01T11:35:38;3.50;;;2.25;;
37777;SDS011;23615;51.506;7.678;2023-08-01T11:38:03;3.60;;;2.58;;
37777;SDS011;23615;51.506;7.678;2023-08-01T11:40:29;3.63;;;2.42;;
37777;SDS011;23615;51.506;7.678;2023-08-01T11:42:56;5.05;;;3.05;;
37777;SDS011;23615;51.506;7.678;2023-08-01T11:45:22;5.15;;;1.73;;
37777;SDS011;23615;51.506;7.678;2023-08-01T11:47:47;3.78;;;1.65;;
37777;SDS011;23615;51.506;7.678;2023-08-01T11:50:13;5.55;;;2.20;;
37777;SDS011;23615;51.506;7.678;2023-08-01T11:52:39;3.28;;;2.10;;
37777;SDS011;23615;51.506;7.678;2023-08-01T11:55:05;2.90;;;1.90;;
37777;SDS011;23615;51.506;7.678;2023-08-01T11:57:31;3.00;;;2.10;;
37777;SDS011;23615;51.506;7.678;2023-08-01T11:59:56;4.30;;;2.20;;
37777;SDS011;23615;51.506;7.678;2023-08-01T12:02:25;3.43;;;2.33;;
37777;SDS011;23615;51.506;7.678;2023-08-01T12:04:52;3.45;;;2.80;;
37777;SDS011;23615;51.506;7.678;2023-08-01T12:07:18;4.75;;;2.50;;
37777;SDS011;23615;51.506;7.678;2023-08-01T12:09:44;3.38;;;1.92;;
37777;SDS011;23615;51.506;7.678;2023-08-01T12:12:19;3.20;;;1.48;;
37777;SDS011;23615;51.506;7.678;2023-08-01T12:14:45;1.97;;;1.10;;
37777;SDS011;23615;51.506;7.678;2023-08-01T12:17:10;0.87;;;0.87;;
37777;SDS011;23615;51.506;7.678;2023-08-01T12:19:35;1.53;;;0.90;;
37777;SDS011;23615;51.506;7.678;2023-08-01T12:22:01;2.30;;;0.90;;
37777;SDS011;23615;51.506;7.678;2023-08-01T12:24:26;3.53;;;1.30;;
37777;SDS011;23615;51.506;7.678;2023-08-01T12:26:51;2.63;;;1.00;;
37777;SDS011;23615;51.506;7.678;2023-08-01T12:29:17;2.40;;;1.00;;
37777;SDS011;23615;51.506;7.678;2023-08-01T12:31:42;2.90;;;1.15;;
37777;SDS011;23615;51.506;7.678;2023-08-01T12:34:07;1.93;;;0.67;;
37777;SDS011;23615;51.506;7.678;2023-08-01T12:36:32;1.90;;;1.10;;
37777;SDS011;23615;51.506;7.678;2023-08-01T12:38:58;1.45;;;1.20;;
37777;SDS011;23615;51.506;7.678;2023-08-01T12:41:23;2.57;;;1.00;;
37777;SDS011;23615;51.506;7.678;2023-08-01T12:43:48;2.50;;;1.40;;
37777;SDS011;23615;51.506;7.678;2023-08-01T12:46:14;4.07;;;2.17;;
37777;SDS011;23615;51.506;7.678;2023-08-01T12:48:40;6.40;;;2.30;;
37777;SDS011;23615;51.506;7.678;2023-08-01T12:51:05;3.27;;;2.07;;
37777;SDS011;23615;51.506;7.678;2023-08-01T12:53:31;5.47;;;2.47;;
37777;SDS011;23615;51.506;7.678;2023-08-01T12:55:56;4.53;;;2.20;;
37777;SDS011;23615;51.506;7.678;2023-08-01T12:58:21;4.57;;;2.50;;
37777;SDS011;23615;51.506;7.678;2023-08-01T13:00:46;4.13;;;2.37;;
37777;SDS011;23615;51.506;7.678;2023-08-01T13:03:12;4.30;;;2.40;;
37777;SDS011;23615;51.506;7.678;2023-08-01T13:05:38;3.20;;;1.83;;
37777;SDS011;23615;51.506;7.678;2023-08-01T13:08:04;3.97;;;1.80;;
37777;SDS011;23615;51.506;7.678;2023-08-01T13:10:33;3.03;;;2.05;;
37777;SDS011;23615;51.506;7.678;2023-08-01T13:13:00;3.97;;;2.08;;
37777;SDS011;23615;51.506;7.678;2023-08-01T13:15:25;3.70;;;1.92;;
37777;SDS011;23615;51.506;7.678;2023-08-01T13:17:52;2.30;;;1.50;;
37777;SDS011;23615;51.506;7.678;2023-08-01T13:20:18;3.55;;;1.77;;
37777;SDS011;23615;51.506;7.678;2023-08-01T13:22:48;5.10;;;1.90;;
37777;SDS011;23615;51.506;7.678;2023-08-01T13:25:14;4.65;;;2.05;;
37777;SDS011;23615;51.506;7.678;2023-08-01T13:27:40;3.70;;;1.65;;
37777;SDS011;23615;51.506;7.678;2023-08-01T13:30:06;3.87;;;1.53;;
37777;SDS011;23615;51.506;7.678;2023-08-01T13:32:33;3.00;;;1.77;;
37777;SDS011;23615;51.506;7.678;2023-08-01T13:34:58;3.90;;;2.00;;
37777;SDS011;23615;51.506;7.678;2023-08-01T13:37:23;3.07;;;1.97;;
37777;SDS011;23615;51.506;7.678;2023-08-01T13:39:49;3.88;;;2.35;;
37777;SDS011;23615;51.506;7.678;2023-08-01T13:42:14;3.87;;;2.20;;
37777;SDS011;23615;51.506;7.678;2023-08-01T13:44:40;4.30;;;2.37;;
37777;SDS011;23615;51.506;7.678;2023-08-01T13:47:05;3.97;;;2.10;;
37777;SDS011;23615;51.506;7.678;2023-08-01T13:49:31;4.53;;;1.40;;
37777;SDS011;23615;51.506;7.678;2023-08-01T13:51:57;3.97;;;1.33;;
37777;SDS011;23615;51.506;7.678;2023-08-01T13:54:23;2.63;;;1.10;;
37777;SDS011;23615;51.506;7.678;2023-08-01T13:56:48;3.07;;;0.97;;
37777;SDS011;23615;51.506;7.678;2023-08-01T13:59:13;5.83;;;1.13;;
37777;SDS011;23615;51.506;7.678;2023-08-01T14:01:39;3.13;;;0.70;;
37777;SDS011;23615;51.506;7.678;2023-08-01T14:04:04;1.70;;;0.90;;
37777;SDS011;23615;51.506;7.678;2023-08-01T14:06:29;2.50;;;1.13;;
37777;SDS011;23615;51.506;7.678;2023-08-01T14:08:55;1.80;;;0.90;;
37777;SDS011;23615;51.506;7.678;2023-08-01T14:11:20;3.43;;;1.10;;
37777;SDS011;23615;51.506;7.678;2023-08-01T14:13:45;2.83;;;0.80;;
37777;SDS011;23615;51.506;7.678;2023-08-01T14:16:11;3.20;;;1.10;;
37777;SDS011;23615;51.506;7.678;2023-08-01T14:18:36;2.92;;;0.75;;
37777;SDS011;23615;51.506;7.678;2023-08-01T14:21:01;2.77;;;0.90;;
37777;SDS011;23615;51.506;7.678;2023-08-01T14:23:27;4.13;;;1.20;;
37777;SDS011;23615;51.506;7.678;2023-08-01T14:25:52;3.30;;;1.10;;
37777;SDS011;23615;51.506;7.678;2023-08-01T14:28:18;3.37;;;0.90;;
37777;SDS011;23615;51.506;7.678;2023-08-01T14:30:43;3.23;;;0.67;;
37777;SDS011;23615;51.506;7.678;2023-08-01T14:33:09;1.90;;;0.93;;
37777;SDS011;23615;51.506;7.678;2023-08-01T14:35:35;3.90;;;1.08;;
37777;SDS011;23615;51.506;7.678;2023-08-01T14:38:00;3.05;;;0.63;;
37777;SDS011;23615;51.506;7.678;2023-08-01T14:40:27;2.55;;;0.70;;